Time;durP1;ratioP1;P1;durP2;ratioP2;P2;SDS_P1;SDS_P2;PMS_P1;PMS_P2;Temp;Humidity;BMP_temperature;BMP_pressure;BME280_temperature;BME280_humidity;BME280_pressure;Samples;Min_cycle;Max_cycle;Signal;HPM_P1;HPM_P2
2023/04/13 00:01:04;;;;;;;9.10;8.37;;;8.70;80.00;;;;;;6281816;28;20242;-79
2023/04/13 00:04:08;;;;;;;9.30;8.50;;;8.60;80.00;;;;;;6283347;28;20244;-82
2023/04/13 00:07:13;;;;;;;8.30;7.70;;;8.60;80.20;;;;;;6308547;28;20232;-83
2023/04/13 00:10:17;;;;;;;9.30;8.67;;;8.60;80.10;;;;;;6286495;28;20315;-81
2023/04/13 00:13:21;;;;;;;8.73;8.03;;;8.60;80.10;;;;;;6287024;28;21518;-85
2023/04/13 00:16:25;;;;;;;9.47;8.63;;;8.60;80.00;;;;;;6286765;28;20245;-81
2023/04/13 00:19:30;;;;;;;9.43;8.77;;;8.60;80.00;;;;;;6287449;28;20312;-80
2023/04/13 00:22:33;;;;;;;8.43;7.93;;;8.50;80.30;;;;;;6303307;28;20240;-80
2023/04/13 00:25:36;;;;;;;9.27;8.57;;;8.50;80.30;;;;;;6278755;28;20487;-82
2023/04/13 00:28:39;;;;;;;9.67;8.97;;;8.40;80.20;;;;;;6281120;28;20720;-80
2023/04/13 00:31:42;;;;;;;8.83;8.23;;;8.40;80.30;;;;;;6290954;28;20245;-83
2023/04/13 00:34:47;;;;;;;11.03;10.20;;;8.30;80.40;;;;;;6286712;28;20225;-80
2023/04/13 00:37:50;;;;;;;11.00;9.90;;;8.30;80.50;;;;;;6286259;28;20233;-81
2023/04/13 00:40:54;;;;;;;11.57;10.60;;;8.30;80.60;;;;;;6285538;28;20589;-82
2023/04/13 00:43:57;;;;;;;10.87;10.13;;;8.30;80.90;;;;;;6294934;28;20611;-81
2023/04/13 00:47:03;;;;;;;11.83;10.80;;;8.20;81.00;;;;;;6286286;28;20491;-83
2023/04/13 00:50:09;;;;;;;11.30;10.37;;;8.20;80.90;;;;;;6276779;28;20590;-81
2023/04/13 00:53:12;;;;;;;10.93;10.20;;;8.20;81.00;;;;;;6304177;28;20602;-82
2023/04/13 00:56:16;;;;;;;10.80;10.03;;;8.20;80.90;;;;;;6295500;28;20620;-81
2023/04/13 00:59:19;;;;;;;11.53;10.53;;;8.20;80.90;;;;;;6288948;28;20616;-79
2023/04/13 01:02:24;;;;;;;11.10;10.20;;;8.20;80.90;;;;;;6279148;28;20245;-83
2023/04/13 01:05:37;;;;;;;11.20;10.30;;;8.20;80.70;;;;;;6286617;28;20239;-85
2023/04/13 01:08:48;;;;;;;12.93;11.50;;;8.10;80.80;;;;;;6279256;28;20367;-81
2023/04/13 01:11:58;;;;;;;12.27;11.20;;;8.10;80.90;;;;;;6286925;28;20841;-82
2023/04/13 01:15:07;;;;;;;12.13;10.93;;;8.10;81.00;;;;;;6294791;28;20231;-81
2023/04/13 01:18:14;;;;;;;12.83;11.70;;;8.10;80.80;;;;;;6289108;28;20245;-80
2023/04/13 01:21:20;;;;;;;13.27;12.17;;;8.00;81.10;;;;;;6290534;28;20571;-82
2023/04/13 01:24:32;;;;;;;12.17;11.17;;;8.00;81.30;;;;;;6293027;28;20233;-82
2023/04/13 01:27:45;;;;;;;11.77;10.87;;;8.00;81.20;;;;;;6299924;28;20228;-83
2023/04/13 01:30:51;;;;;;;12.43;11.43;;;8.00;81.00;;;;;;6300836;28;20731;-81
2023/04/13 01:33:54;;;;;;;12.50;11.30;;;8.00;81.10;;;;;;6315173;28;20320;-76
2023/04/13 01:37:03;;;;;;;11.17;10.33;;;8.00;81.00;;;;;;6309692;28;20253;-78
2023/04/13 01:40:10;;;;;;;11.63;10.73;;;8.00;80.70;;;;;;6308548;28;20213;-77
2023/04/13 01:43:14;;;;;;;12.47;11.43;;;8.00;80.50;;;;;;6325552;28;20299;-79
2023/04/13 01:46:21;;;;;;;11.60;10.80;;;8.00;80.40;;;;;;6292214;28;20266;-80
2023/04/13 01:49:25;;;;;;;12.23;11.30;;;8.00;80.40;;;;;;6287351;28;20862;-82
2023/04/13 01:52:29;;;;;;;12.80;11.67;;;7.90;80.60;;;;;;6292882;28;20246;-79
2023/04/13 01:55:32;;;;;;;13.67;12.47;;;7.90;80.60;;;;;;6277592;28;20305;-80
2023/04/13 01:58:39;;;;;;;13.27;12.17;;;7.80;80.60;;;;;;6288990;28;20245;-84
2023/04/13 02:01:42;;;;;;;14.00;12.63;;;7.90;80.50;;;;;;6281780;28;21231;-79
2023/04/13 02:04:45;;;;;;;12.37;11.37;;;7.80;80.30;;;;;;6286345;28;20229;-84
2023/04/13 02:07:48;;;;;;;12.20;11.30;;;7.80;80.30;;;;;;6307418;28;20237;-80
2023/04/13 02:10:51;;;;;;;12.77;11.67;;;7.70;80.30;;;;;;6297604;28;20248;-82
2023/04/13 02:13:57;;;;;;;11.73;10.73;;;7.70;80.20;;;;;;6288131;28;20237;-79
2023/04/13 02:17:01;;;;;;;12.10;11.20;;;7.60;80.00;;;;;;6297213;28;20241;-83
2023/04/13 02:20:10;;;;;;;13.43;12.27;;;7.70;79.90;;;;;;6295597;28;20233;-79
2023/04/13 02:23:14;;;;;;;12.33;11.13;;;7.60;79.60;;;;;;6280898;28;20694;-80
2023/04/13 02:26:18;;;;;;;12.47;11.37;;;7.60;79.30;;;;;;6289900;28;20283;-84
2023/04/13 02:29:22;;;;;;;12.10;11.00;;;7.50;78.60;;;;;;6287571;28;20255;-81
2023/04/13 02:32:26;;;;;;;11.97;10.97;;;7.50;78.50;;;;;;6289060;28;20333;-80
2023/04/13 02:35:29;;;;;;;11.13;10.23;;;7.50;78.50;;;;;;6289789;28;20741;-83
2023/04/13 02:38:33;;;;;;;10.70;9.80;;;7.50;78.10;;;;;;6287594;28;20347;-81
2023/04/13 02:41:36;;;;;;;10.13;9.33;;;7.40;78.00;;;;;;6289382;28;20660;-82
2023/04/13 02:44:41;;;;;;;9.83;9.00;;;7.40;77.30;;;;;;6286199;28;20237;-81
2023/04/13 02:47:44;;;;;;;9.37;8.80;;;7.30;76.80;;;;;;6293494;28;20229;-82
2023/04/13 02:50:48;;;;;;;9.27;8.50;;;7.20;76.60;;;;;;6297450;28;20299;-82
2023/04/13 02:53:51;;;;;;;9.27;8.43;;;7.20;76.60;;;;;;6288391;28;20235;-79
2023/04/13 02:56:57;;;;;;;9.47;8.60;;;7.20;76.70;;;;;;6281508;28;20234;-83
2023/04/13 03:00:06;;;;;;;10.20;9.40;;;7.10;77.00;;;;;;6296498;28;20732;-81
2023/04/13 03:03:09;;;;;;;10.30;9.50;;;7.10;77.00;;;;;;6286347;28;20310;-79
2023/04/13 03:06:13;;;;;;;10.90;9.13;;;7.00;77.10;;;;;;6297383;28;20853;-79
2023/04/13 03:09:16;;;;;;;10.63;9.60;;;7.00;77.10;;;;;;6305853;28;20327;-80
2023/04/13 03:12:20;;;;;;;9.87;9.03;;;7.00;76.90;;;;;;6302849;28;20773;-79
2023/04/13 03:15:24;;;;;;;9.80;8.43;;;6.90;77.00;;;;;;6295059;28;20241;-80
2023/04/13 03:18:27;;;;;;;8.10;7.50;;;6.80;77.10;;;;;;6308099;28;20237;-78
2023/04/13 03:21:31;;;;;;;11.13;8.73;;;6.80;77.00;;;;;;6293867;28;20275;-81
2023/04/13 03:24:34;;;;;;;9.20;8.33;;;6.80;76.90;;;;;;6298500;28;20240;-82
2023/04/13 03:27:37;;;;;;;9.30;8.53;;;6.80;77.00;;;;;;6299966;28;20248;-80
2023/04/13 03:30:42;;;;;;;8.33;7.73;;;6.70;77.10;;;;;;6305790;28;20267;-79
2023/04/13 03:33:45;;;;;;;8.33;7.53;;;6.70;76.70;;;;;;6305560;28;20236;-80
2023/04/13 03:36:48;;;;;;;7.77;7.03;;;6.70;76.70;;;;;;6295356;28;20297;-81
2023/04/13 03:39:51;;;;;;;8.60;7.33;;;6.70;76.50;;;;;;6286040;28;20691;-79
2023/04/13 03:42:55;;;;;;;7.93;7.17;;;6.70;76.50;;;;;;6291163;28;20229;-79
2023/04/13 03:45:59;;;;;;;8.40;6.47;;;6.70;76.10;;;;;;6296950;28;20637;-78
2023/04/13 03:49:03;;;;;;;6.40;5.93;;;6.70;76.30;;;;;;6288419;28;20244;-80
2023/04/13 03:52:06;;;;;;;6.73;6.10;;;6.70;76.00;;;;;;6287068;28;20362;-80
2023/04/13 03:55:09;;;;;;;6.50;6.00;;;6.60;75.90;;;;;;6299770;28;20251;-80
2023/04/13 03:58:12;;;;;;;6.53;6.10;;;6.70;75.70;;;;;;6291853;28;20233;-79
2023/04/13 04:01:17;;;;;;;6.93;6.27;;;6.70;75.80;;;;;;6294687;28;20772;-81
2023/04/13 04:04:20;;;;;;;7.03;6.43;;;6.70;75.30;;;;;;6289772;28;20253;-81
2023/04/13 04:07:23;;;;;;;6.00;5.43;;;6.60;75.40;;;;;;6291131;28;20234;-79
2023/04/13 04:10:27;;;;;;;7.07;5.83;;;6.70;75.40;;;;;;6288316;28;20727;-80
2023/04/13 04:13:30;;;;;;;6.77;6.17;;;6.70;75.10;;;;;;6291072;28;20319;-80
2023/04/13 04:16:35;;;;;;;6.50;5.93;;;6.70;74.90;;;;;;6309203;28;20256;-81
2023/04/13 04:19:39;;;;;;;6.67;6.17;;;6.70;74.60;;;;;;6284882;28;20241;-83
2023/04/13 04:22:43;;;;;;;6.17;5.77;;;6.70;74.40;;;;;;6286909;28;20261;-80
2023/04/13 04:25:47;;;;;;;6.43;5.80;;;6.80;74.20;;;;;;6290314;28;20244;-81
2023/04/13 04:28:50;;;;;;;6.63;6.07;;;6.80;74.30;;;;;;6291872;28;20226;-79
2023/04/13 04:31:55;;;;;;;6.90;6.20;;;6.80;74.40;;;;;;6282543;27;20367;-80
2023/04/13 04:34:58;;;;;;;7.27;6.63;;;6.70;74.60;;;;;;6293980;28;20297;-80
2023/04/13 04:38:04;;;;;;;6.57;6.13;;;6.70;74.70;;;;;;6288791;28;20241;-81
2023/04/13 04:41:07;;;;;;;7.10;6.50;;;6.70;74.80;;;;;;6284525;28;20237;-78
2023/04/13 04:44:11;;;;;;;7.77;7.07;;;6.70;75.00;;;;;;6290961;28;20237;-81
2023/04/13 04:47:17;;;;;;;10.00;7.57;;;6.70;75.40;;;;;;6291623;28;20247;-81
2023/04/13 04:50:21;;;;;;;8.20;7.50;;;6.50;76.20;;;;;;6277624;28;20241;-82
2023/04/13 04:53:26;;;;;;;8.77;8.03;;;6.60;76.30;;;;;;6287089;28;20900;-82
2023/04/13 04:56:29;;;;;;;7.77;7.17;;;6.50;76.70;;;;;;6284550;28;20260;-81
2023/04/13 04:59:32;;;;;;;8.57;7.60;;;6.50;76.80;;;;;;6296563;28;20882;-81
2023/04/13 05:02:37;;;;;;;8.73;7.93;;;6.50;76.80;;;;;;6306834;28;20447;-81
2023/04/13 05:05:40;;;;;;;10.00;9.00;;;6.50;76.90;;;;;;6285802;28;20232;-81
2023/04/13 05:08:45;;;;;;;9.43;8.60;;;6.50;77.00;;;;;;6283528;28;20259;-81
2023/04/13 05:11:50;;;;;;;10.57;9.37;;;6.50;77.30;;;;;;6285074;28;20315;-82
2023/04/13 05:14:53;;;;;;;13.30;9.53;;;6.40;77.70;;;;;;6291333;28;20236;-82
2023/04/13 05:17:59;;;;;;;11.77;10.03;;;6.50;77.50;;;;;;6290437;28;20448;-80
2023/04/13 05:21:02;;;;;;;11.77;9.30;;;6.50;77.60;;;;;;6286840;28;20240;-81
2023/04/13 05:24:05;;;;;;;11.47;10.37;;;6.50;77.60;;;;;;6284941;28;20312;-81
2023/04/13 05:27:10;;;;;;;10.53;9.50;;;6.50;77.60;;;;;;6283470;28;20915;-81
2023/04/13 05:30:14;;;;;;;11.53;10.43;;;6.60;77.50;;;;;;6284779;28;20256;-80
2023/04/13 05:33:19;;;;;;;15.53;11.33;;;6.60;77.30;;;;;;6297127;28;20221;-76
2023/04/13 05:36:22;;;;;;;12.83;10.47;;;6.70;77.30;;;;;;6310065;28;20241;-77
2023/04/13 05:39:26;;;;;;;12.10;10.57;;;6.60;77.40;;;;;;6316822;28;20241;-79
2023/04/13 05:42:29;;;;;;;12.03;10.90;;;6.70;77.40;;;;;;6321297;28;20367;-78
2023/04/13 05:45:32;;;;;;;11.63;10.30;;;6.80;77.20;;;;;;6314876;28;20243;-80
2023/04/13 05:48:37;;;;;;;14.00;10.60;;;6.90;77.10;;;;;;6321029;28;20267;-78
2023/04/13 05:51:40;;;;;;;13.10;11.70;;;6.90;76.90;;;;;;6317585;28;20241;-76
2023/04/13 05:54:43;;;;;;;11.60;10.50;;;7.00;76.80;;;;;;6315870;28;20229;-78
2023/04/13 05:57:46;;;;;;;13.17;10.73;;;7.00;76.50;;;;;;6302029;28;20798;-80
2023/04/13 06:00:50;;;;;;;11.40;10.30;;;7.00;76.90;;;;;;6289096;28;20712;-79
2023/04/13 06:03:54;;;;;;;12.87;9.47;;;7.00;77.00;;;;;;6290362;28;20233;-81
2023/04/13 06:07:01;;;;;;;10.50;9.70;;;7.00;76.70;;;;;;6284494;28;20239;-81
2023/04/13 06:10:05;;;;;;;11.43;10.33;;;7.00;76.70;;;;;;6278365;28;20237;-81
2023/04/13 06:13:08;;;;;;;10.80;9.90;;;7.00;77.10;;;;;;6283892;28;20237;-80
2023/04/13 06:16:12;;;;;;;11.57;10.13;;;7.20;77.10;;;;;;6289222;28;20230;-79
2023/04/13 06:19:16;;;;;;;11.23;10.13;;;7.20;76.90;;;;;;6312007;28;20252;-78
2023/04/13 06:22:19;;;;;;;11.37;9.57;;;7.20;76.50;;;;;;6327026;28;20285;-78
2023/04/13 06:25:22;;;;;;;9.47;8.77;;;7.40;76.40;;;;;;6303815;28;20245;-77
2023/04/13 06:28:28;;;;;;;10.07;9.07;;;7.50;76.20;;;;;;6318432;27;20236;-78
2023/04/13 06:31:31;;;;;;;10.67;9.67;;;7.50;75.50;;;;;;6325601;28;20312;-77
2023/04/13 06:34:36;;;;;;;11.10;9.40;;;7.60;75.30;;;;;;6319526;28;20275;-78
2023/04/13 06:37:39;;;;;;;10.67;9.10;;;7.60;75.40;;;;;;6323483;28;20245;-76
2023/04/13 06:40:42;;;;;;;9.57;8.67;;;7.70;74.90;;;;;;6322593;28;20285;-75
2023/04/13 06:43:45;;;;;;;8.67;7.73;;;7.80;74.80;;;;;;6317944;28;20217;-78
2023/04/13 06:46:49;;;;;;;7.97;7.43;;;7.80;74.10;;;;;;6311271;28;20237;-79
2023/04/13 06:49:54;;;;;;;8.57;7.87;;;7.90;73.20;;;;;;6291840;28;20245;-83
2023/04/13 06:52:57;;;;;;;8.80;7.97;;;7.80;73.50;;;;;;6290795;28;20359;-81
2023/04/13 06:56:02;;;;;;;9.23;7.53;;;8.00;73.50;;;;;;6299938;28;20332;-79
2023/04/13 06:59:06;;;;;;;8.07;7.27;;;8.00;73.50;;;;;;6297244;28;20237;-80
2023/04/13 07:02:09;;;;;;;8.33;7.63;;;8.00;73.40;;;;;;6289335;28;20312;-80
2023/04/13 07:05:14;;;;;;;8.33;7.63;;;7.90;73.40;;;;;;6289704;28;20229;-79
2023/04/13 07:08:18;;;;;;;9.03;8.13;;;8.00;73.20;;;;;;6283075;28;20493;-82
2023/04/13 07:11:23;;;;;;;8.10;7.40;;;8.00;73.20;;;;;;6295246;28;20588;-79
2023/04/13 07:14:26;;;;;;;7.20;6.80;;;8.10;73.30;;;;;;6282435;28;20263;-79
2023/04/13 07:17:30;;;;;;;7.13;6.50;;;8.10;73.00;;;;;;6291953;28;20256;-80
2023/04/13 07:20:35;;;;;;;6.40;5.90;;;8.20;72.50;;;;;;6288126;28;20237;-80
2023/04/13 07:23:38;;;;;;;6.07;5.77;;;8.20;72.20;;;;;;6289643;28;20775;-80
2023/04/13 07:26:41;;;;;;;5.73;5.43;;;8.30;72.20;;;;;;6292462;28;20279;-81
2023/04/13 07:29:44;;;;;;;6.50;6.00;;;8.40;72.10;;;;;;6290016;28;20251;-80
2023/04/13 07:32:47;;;;;;;5.87;5.60;;;8.60;71.50;;;;;;6294287;28;20229;-80
2023/04/13 07:35:54;;;;;;;8.17;5.97;;;8.60;71.00;;;;;;6289571;28;20226;-82
2023/04/13 07:38:57;;;;;;;6.47;5.87;;;8.60;70.90;;;;;;6283392;28;20245;-80
2023/04/13 07:42:01;;;;;;;6.40;5.90;;;8.70;70.00;;;;;;6290567;28;20730;-79
2023/04/13 07:45:05;;;;;;;6.07;5.67;;;8.50;70.50;;;;;;6302028;28;20244;-79
2023/04/13 07:48:08;;;;;;;6.30;5.77;;;8.50;70.30;;;;;;6288895;28;20743;-79
2023/04/13 07:51:18;;;;;;;6.57;6.07;;;8.60;70.40;;;;;;6286600;28;20237;-81
2023/04/13 07:54:21;;;;;;;6.10;5.60;;;8.70;70.90;;;;;;6284602;28;20327;-81
2023/04/13 07:57:24;;;;;;;5.53;5.13;;;8.90;70.40;;;;;;6280235;28;20233;-82
2023/04/13 08:00:28;;;;;;;7.20;6.77;;;9.00;69.30;;;;;;6281802;28;20241;-79
2023/04/13 08:03:31;;;;;;;5.73;5.30;;;9.00;69.40;;;;;;6287009;28;20237;-82
2023/04/13 08:06:36;;;;;;;5.83;5.40;;;9.00;69.00;;;;;;6286389;28;20233;-80
2023/04/13 08:09:40;;;;;;;5.20;4.90;;;8.90;68.90;;;;;;6288509;28;20273;-78
2023/04/13 08:12:43;;;;;;;4.90;4.60;;;9.10;69.20;;;;;;6294087;28;20244;-81
2023/04/13 08:15:48;;;;;;;5.00;4.77;;;9.40;68.00;;;;;;6284016;28;20387;-78
2023/04/13 08:18:51;;;;;;;4.23;4.07;;;9.60;67.80;;;;;;6289926;28;20233;-77
2023/04/13 08:21:56;;;;;;;4.33;4.20;;;9.60;66.70;;;;;;6295647;28;20229;-79
2023/04/13 08:24:59;;;;;;;4.50;4.20;;;9.70;66.30;;;;;;6285999;28;20256;-80
2023/04/13 08:28:02;;;;;;;4.30;4.10;;;9.70;66.30;;;;;;6286077;28;20257;-79
2023/04/13 08:31:06;;;;;;;3.87;3.77;;;9.60;66.40;;;;;;6287654;28;20237;-78
2023/04/13 08:34:11;;;;;;;4.03;3.83;;;9.50;65.80;;;;;;6294525;28;20966;-78
2023/04/13 08:37:16;;;;;;;4.07;3.97;;;9.60;65.90;;;;;;6312454;28;20277;-76
2023/04/13 08:40:19;;;;;;;4.20;4.00;;;10.00;65.30;;;;;;6305525;28;20227;-75
2023/04/13 08:43:23;;;;;;;4.33;3.97;;;10.00;64.80;;;;;;6325222;28;20232;-77
2023/04/13 08:46:29;;;;;;;3.23;3.23;;;10.00;64.90;;;;;;6314612;28;20225;-78
2023/04/13 08:49:33;;;;;;;3.30;3.00;;;10.30;63.10;;;;;;6286114;28;20237;-80
2023/04/13 08:52:41;;;;;;;3.60;3.27;;;10.20;63.20;;;;;;6286513;28;20240;-78
2023/04/13 08:55:46;;;;;;;3.27;3.00;;;10.40;63.10;;;;;;6273802;28;20760;-79
2023/04/13 08:58:52;;;;;;;4.90;3.40;;;10.40;62.60;;;;;;6289112;28;21778;-80
2023/04/13 09:01:57;;;;;;;3.40;3.30;;;10.30;62.70;;;;;;6286393;28;20336;-80
2023/04/13 09:05:04;;;;;;;3.00;2.90;;;10.30;61.80;;;;;;6297800;28;20232;-80
2023/04/13 09:08:12;;;;;;;3.23;2.90;;;10.20;62.20;;;;;;6286965;28;20312;-79
2023/04/13 09:11:15;;;;;;;3.83;3.00;;;10.30;62.00;;;;;;6288483;28;20236;-78
2023/04/13 09:14:20;;;;;;;2.90;2.80;;;10.30;61.60;;;;;;6291387;28;20445;-80
2023/04/13 09:17:25;;;;;;;2.73;2.63;;;10.50;61.70;;;;;;6286393;28;20882;-79
2023/04/13 09:20:29;;;;;;;2.80;2.70;;;10.70;59.90;;;;;;6291767;28;20318;-79
2023/04/13 09:23:34;;;;;;;5.43;2.93;;;10.80;60.40;;;;;;6295755;28;20236;-79
2023/04/13 09:26:41;;;;;;;3.40;2.90;;;10.90;59.60;;;;;;6289798;28;20724;-78
2023/04/13 09:29:50;;;;;;;3.03;2.80;;;10.80;59.10;;;;;;6292405;28;20237;-79
2023/04/13 09:33:06;;;;;;;2.90;2.80;;;10.80;59.60;;;;;;6291542;28;20237;-79
2023/04/13 09:36:10;;;;;;;2.73;2.60;;;11.00;59.10;;;;;;6291701;28;20234;-79
2023/04/13 09:39:16;;;;;;;2.57;2.57;;;10.90;59.80;;;;;;6300221;28;20229;-80
2023/04/13 09:42:19;;;;;;;2.53;2.43;;;10.90;59.90;;;;;;6289740;28;20229;-79
2023/04/13 09:45:23;;;;;;;3.07;2.87;;;11.00;59.40;;;;;;6291295;28;20856;-80
2023/04/13 09:48:26;;;;;;;2.40;2.40;;;11.00;59.60;;;;;;6290292;28;20256;-80
2023/04/13 09:51:37;;;;;;;3.77;2.50;;;11.10;59.40;;;;;;6285788;28;20249;-77
2023/04/13 09:54:41;;;;;;;2.60;2.60;;;11.10;59.30;;;;;;6272150;28;20562;-81
2023/04/13 09:57:45;;;;;;;2.97;2.70;;;11.10;59.00;;;;;;6292495;28;20589;-81
2023/04/13 10:00:49;;;;;;;2.80;2.60;;;11.20;60.30;;;;;;6287937;28;20236;-81
2023/04/13 10:03:52;;;;;;;3.07;2.80;;;11.50;59.20;;;;;;6290002;28;20233;-84
2023/04/13 10:06:56;;;;;;;3.07;2.97;;;11.70;57.50;;;;;;6289281;28;20685;-80
2023/04/13 10:10:00;;;;;;;2.77;2.67;;;11.90;57.80;;;;;;6291424;28;20782;-79
2023/04/13 10:13:10;;;;;;;2.53;2.50;;;11.90;56.80;;;;;;6290649;28;20237;-80
2023/04/13 10:16:36;;;;;;;2.93;2.80;;;11.70;57.80;;;;;;6286061;28;20242;-81
2023/04/13 10:19:43;;;;;;;4.77;4.57;;;11.70;57.70;;;;;;6284004;28;20234;-79
2023/04/13 10:22:47;;;;;;;4.47;2.80;;;11.40;58.70;;;;;;6287854;28;20248;-81
2023/04/13 10:25:53;;;;;;;2.73;2.63;;;11.70;58.00;;;;;;6295074;28;20243;-80
2023/04/13 10:28:56;;;;;;;2.97;2.77;;;11.90;58.00;;;;;;6291584;28;20237;-78
2023/04/13 10:32:01;;;;;;;2.50;2.40;;;11.70;57.70;;;;;;6290247;28;20259;-81
2023/04/13 10:35:10;;;;;;;2.33;2.33;;;11.80;57.60;;;;;;6284331;28;20755;-78
2023/04/13 10:38:14;;;;;;;2.50;2.37;;;11.90;57.60;;;;;;6288504;28;20363;-80
2023/04/13 10:41:27;;;;;;;2.90;2.70;;;11.70;57.40;;;;;;6287173;28;20592;-79
2023/04/13 10:44:44;;;;;;;2.57;2.47;;;11.90;57.40;;;;;;6290223;28;20234;-81
2023/04/13 10:47:47;;;;;;;9.57;7.20;;;12.00;57.10;;;;;;6290573;28;20252;-81
2023/04/13 10:50:58;;;;;;;2.53;2.53;;;12.00;57.00;;;;;;6284689;28;20233;-81
2023/04/13 10:54:04;;;;;;;2.87;2.53;;;12.10;57.00;;;;;;6304323;28;20484;-80
2023/04/13 10:57:10;;;;;;;2.67;2.47;;;12.20;56.30;;;;;;6299736;28;20225;-77
2023/04/13 11:00:20;;;;;;;2.30;2.30;;;12.30;55.70;;;;;;6319553;28;20235;-79
2023/04/13 11:03:32;;;;;;;2.60;2.40;;;12.40;55.30;;;;;;6305922;28;20324;-79
2023/04/13 11:06:38;;;;;;;2.70;2.50;;;12.50;55.60;;;;;;6291223;28;20332;-81
2023/04/13 11:09:44;;;;;;;2.63;2.53;;;12.50;55.90;;;;;;6289880;28;20264;-80
2023/04/13 11:12:54;;;;;;;3.87;2.87;;;12.50;56.40;;;;;;6287317;28;20233;-80
2023/04/13 11:16:02;;;;;;;2.47;2.37;;;12.70;55.70;;;;;;6278153;28;20241;-79
2023/04/13 11:19:05;;;;;;;2.40;2.30;;;12.80;54.40;;;;;;6314509;28;20240;-79
2023/04/13 11:22:09;;;;;;;2.73;2.63;;;12.90;55.10;;;;;;6279543;28;20272;-81
2023/04/13 11:25:15;;;;;;;3.03;2.37;;;12.80;54.30;;;;;;6287323;28;20229;-77
2023/04/13 11:28:21;;;;;;;2.40;2.40;;;12.70;54.60;;;;;;6296081;28;20250;-80
2023/04/13 11:31:36;;;;;;;2.70;2.57;;;12.80;54.30;;;;;;6279303;28;20661;-77
2023/04/13 11:34:39;;;;;;;2.20;2.10;;;12.90;54.00;;;;;;6278953;28;20779;-79
2023/04/13 11:37:43;;;;;;;2.60;2.40;;;12.80;54.10;;;;;;6292603;28;20236;-81
2023/04/13 11:40:47;;;;;;;2.83;2.73;;;12.60;54.70;;;;;;6289029;28;20241;-78
2023/04/13 11:43:51;;;;;;;2.80;2.60;;;12.50;54.70;;;;;;6293156;28;20237;-79
2023/04/13 11:46:56;;;;;;;3.27;3.03;;;12.50;55.00;;;;;;6288856;28;20246;-78
2023/04/13 11:49:59;;;;;;;3.13;2.47;;;12.70;54.30;;;;;;6288312;28;20309;-79
2023/04/13 11:53:03;;;;;;;3.17;2.97;;;12.90;54.70;;;;;;6286246;28;20604;-78
2023/04/13 11:56:07;;;;;;;3.37;3.07;;;12.80;54.90;;;;;;6288398;28;20221;-79
2023/04/13 11:59:12;;;;;;;2.57;2.57;;;12.90;54.50;;;;;;6286789;28;20236;-80
2023/04/13 12:02:15;;;;;;;2.50;2.40;;;13.00;54.50;;;;;;6293146;28;20233;-78
2023/04/13 12:05:26;;;;;;;3.90;3.07;;;13.10;53.70;;;;;;6284909;28;20719;-79
2023/04/13 12:08:30;;;;;;;4.20;2.53;;;13.30;53.90;;;;;;6291108;28;20233;-81
2023/04/13 12:11:38;;;;;;;2.60;2.50;;;13.30;53.60;;;;;;6288892;28;20458;-80
2023/04/13 12:14:56;;;;;;;2.57;2.43;;;13.10;53.90;;;;;;6294166;28;20624;-81
2023/04/13 12:18:20;;;;;;;3.00;2.27;;;13.20;53.70;;;;;;6292484;28;20233;-79
2023/04/13 12:21:28;;;;;;;3.00;2.43;;;13.10;54.00;;;;;;6290838;28;20475;-82
2023/04/13 12:24:32;;;;;;;3.10;2.50;;;13.20;53.20;;;;;;6294359;28;20234;-79
2023/04/13 12:27:41;;;;;;;2.60;2.40;;;13.30;53.90;;;;;;6287617;28;20260;-83
2023/04/13 12:30:47;;;;;;;2.93;2.73;;;13.40;53.40;;;;;;6286534;28;20745;-79
2023/04/13 12:33:51;;;;;;;2.60;2.50;;;13.60;52.70;;;;;;6287441;28;20241;-80
2023/04/13 12:36:54;;;;;;;2.20;2.20;;;13.90;52.50;;;;;;6287428;28;20435;-80
2023/04/13 12:39:57;;;;;;;2.23;2.13;;;14.10;52.00;;;;;;6300655;28;20244;-81
2023/04/13 12:43:00;;;;;;;2.83;2.70;;;14.00;52.20;;;;;;6290518;28;20242;-79
2023/04/13 12:46:05;;;;;;;2.40;2.30;;;13.80;52.30;;;;;;6292704;28;20668;-78
2023/04/13 12:49:08;;;;;;;2.20;2.10;;;13.50;53.40;;;;;;6318073;28;20220;-81
2023/04/13 12:52:11;;;;;;;2.97;2.70;;;13.50;52.50;;;;;;6297508;28;20316;-79
2023/04/13 12:55:14;;;;;;;2.57;2.47;;;13.50;53.60;;;;;;6274589;28;20252;-76
2023/04/13 12:58:17;;;;;;;2.60;2.50;;;13.50;53.70;;;;;;6275936;28;20229;-80
2023/04/13 13:01:22;;;;;;;2.70;2.50;;;13.60;52.70;;;;;;6282633;28;20325;-81
2023/04/13 13:04:28;;;;;;;2.37;2.27;;;13.50;53.90;;;;;;6285589;28;20240;-81
2023/04/13 13:07:32;;;;;;;2.50;2.40;;;13.70;53.20;;;;;;6297421;28;20339;-80
2023/04/13 13:10:35;;;;;;;2.50;2.30;;;13.50;53.00;;;;;;6316731;28;20289;-76
2023/04/13 13:13:38;;;;;;;2.10;2.10;;;13.50;52.60;;;;;;6322337;28;20350;-79
2023/04/13 13:16:43;;;;;;;2.30;2.20;;;13.60;52.10;;;;;;6309346;28;20229;-79
2023/04/13 13:19:46;;;;;;;2.37;2.23;;;13.60;52.60;;;;;;6317722;28;20375;-77
2023/04/13 13:22:49;;;;;;;2.50;2.40;;;13.30;52.40;;;;;;6298863;28;20237;-80
2023/04/13 13:25:53;;;;;;;2.13;2.10;;;13.30;52.70;;;;;;6285539;28;20233;-81
2023/04/13 13:29:18;;;;;;;2.20;2.20;;;13.40;52.50;;;;;;6288913;28;20578;-80
2023/04/13 13:32:22;;;;;;;2.37;2.27;;;13.50;52.80;;;;;;6284313;28;20234;-81
2023/04/13 13:35:25;;;;;;;3.07;2.47;;;13.60;52.70;;;;;;6292222;28;20259;-81
2023/04/13 13:38:28;;;;;;;3.10;3.00;;;13.70;53.00;;;;;;6286985;28;20316;-79
2023/04/13 13:41:31;;;;;;;2.40;2.30;;;13.70;52.60;;;;;;6291100;28;20669;-80
2023/04/13 13:44:35;;;;;;;2.37;2.27;;;14.00;52.30;;;;;;6285712;28;20241;-81
2023/04/13 13:47:40;;;;;;;2.43;2.23;;;14.20;52.20;;;;;;6284077;28;20251;-81
2023/04/13 13:50:43;;;;;;;2.73;2.53;;;14.00;52.20;;;;;;6298681;28;20406;-80
2023/04/13 13:53:47;;;;;;;2.73;2.10;;;13.90;52.70;;;;;;6299211;28;20240;-75
2023/04/13 13:56:50;;;;;;;2.43;2.23;;;14.00;52.50;;;;;;6283548;28;20243;-80
2023/04/13 13:59:53;;;;;;;2.47;2.30;;;14.50;51.70;;;;;;6285569;28;20787;-79
2023/04/13 14:02:58;;;;;;;2.60;2.37;;;14.50;51.10;;;;;;6283868;28;20237;-80
2023/04/13 14:06:02;;;;;;;2.47;2.37;;;14.70;50.50;;;;;;6284216;28;20241;-80
2023/04/13 14:09:05;;;;;;;2.10;2.00;;;14.60;50.90;;;;;;6282968;28;20879;-81
2023/04/13 14:12:08;;;;;;;2.17;2.07;;;14.80;50.60;;;;;;6289149;28;20240;-82
2023/04/13 14:15:13;;;;;;;2.17;2.17;;;14.70;51.40;;;;;;6295239;28;20233;-81
2023/04/13 14:18:17;;;;;;;2.50;2.40;;;14.80;50.90;;;;;;6299870;28;20615;-78
2023/04/13 14:21:21;;;;;;;2.23;2.13;;;14.70;50.50;;;;;;6289238;28;20232;-79
2023/04/13 14:24:25;;;;;;;1.97;1.87;;;15.00;49.60;;;;;;6295685;28;20237;-79
2023/04/13 14:27:28;;;;;;;2.67;2.30;;;15.00;49.50;;;;;;6294225;28;20304;-78
2023/04/13 14:30:31;;;;;;;2.10;2.00;;;14.70;50.20;;;;;;6288946;28;20241;-79
2023/04/13 14:33:36;;;;;;;1.90;1.90;;;15.00;50.10;;;;;;6293228;28;20729;-80
2023/04/13 14:36:39;;;;;;;2.03;2.03;;;14.90;50.10;;;;;;6301126;28;20254;-80
2023/04/13 14:39:42;;;;;;;3.03;2.40;;;14.70;50.20;;;;;;6287405;28;20237;-79
2023/04/13 14:42:45;;;;;;;2.53;2.33;;;14.40;50.30;;;;;;6297627;28;20233;-79
2023/04/13 14:45:52;;;;;;;3.60;3.30;;;14.20;51.30;;;;;;6296135;28;20671;-81
2023/04/13 14:48:57;;;;;;;4.30;3.53;;;14.10;52.10;;;;;;6282085;28;20367;-77
2023/04/13 14:52:00;;;;;;;3.10;2.87;;;14.00;52.30;;;;;;6296695;28;20248;-81
2023/04/13 14:55:04;;;;;;;3.90;2.50;;;13.90;52.20;;;;;;6294247;28;20232;-81
2023/04/13 14:58:07;;;;;;;2.60;2.40;;;13.90;52.00;;;;;;6292850;28;20233;-80
2023/04/13 15:01:17;;;;;;;2.47;2.37;;;13.90;52.00;;;;;;6288566;28;20244;-80
2023/04/13 15:04:21;;;;;;;2.40;2.30;;;13.90;51.50;;;;;;6285682;28;20707;-79
2023/04/13 15:07:28;;;;;;;2.27;2.10;;;13.90;52.00;;;;;;6296899;28;20278;-80
2023/04/13 15:10:33;;;;;;;3.07;2.33;;;14.00;51.40;;;;;;6289737;28;20252;-80
2023/04/13 15:13:37;;;;;;;2.47;2.37;;;13.90;51.90;;;;;;6287815;28;20720;-79
2023/04/13 15:16:40;;;;;;;2.30;2.30;;;13.90;52.30;;;;;;6289880;28;20238;-81
2023/04/13 15:19:44;;;;;;;2.30;2.10;;;13.90;52.20;;;;;;6288774;28;20771;-81
2023/04/13 15:22:48;;;;;;;3.50;2.70;;;13.70;52.50;;;;;;6287165;28;20338;-80
2023/04/13 15:25:51;;;;;;;2.90;2.70;;;13.60;52.30;;;;;;6300125;28;20244;-79
2023/04/13 15:28:54;;;;;;;2.50;2.40;;;13.60;52.80;;;;;;6311402;28;20283;-77
2023/04/13 15:31:59;;;;;;;3.77;3.40;;;13.60;52.90;;;;;;6313260;28;20241;-80
2023/04/13 15:35:03;;;;;;;3.00;2.80;;;13.60;52.70;;;;;;6307740;28;20271;-78
2023/04/13 15:38:08;;;;;;;3.10;2.50;;;13.70;52.30;;;;;;6297298;28;20241;-79
2023/04/13 15:41:11;;;;;;;2.17;2.00;;;13.90;52.20;;;;;;6287963;28;20236;-79
2023/04/13 15:44:14;;;;;;;2.50;2.40;;;13.90;51.50;;;;;;6281714;28;20243;-79
2023/04/13 15:47:17;;;;;;;2.27;2.17;;;13.90;51.20;;;;;;6294151;28;20371;-80
2023/04/13 15:50:23;;;;;;;2.73;2.50;;;13.90;51.90;;;;;;6287590;28;20234;-81
2023/04/13 15:53:27;;;;;;;3.30;2.77;;;13.80;51.90;;;;;;6283741;28;20233;-81
2023/04/13 15:56:30;;;;;;;3.30;3.00;;;13.90;52.00;;;;;;6283667;28;20233;-82
2023/04/13 15:59:33;;;;;;;2.30;2.20;;;13.70;52.30;;;;;;6282477;28;20327;-80
2023/04/13 16:02:37;;;;;;;2.77;2.40;;;13.70;51.80;;;;;;6281420;28;20242;-82